sensor_id;sensor_type;location;lat;lon;timestamp;temperature;humidity
5429;DHT22;2737;52.386;9.980;2023-04-03T00:01:51;1.40;99.90
5429;DHT22;2737;52.386;9.980;2023-04-03T00:04:18;1.30;99.90
5429;DHT22;2737;52.386;9.980;2023-04-03T00:06:45;1.30;99.90
5429;DHT22;2737;52.386;9.980;2023-04-03T00:09:14;1.20;99.90
5429;DHT22;2737;52.386;9.980;2023-04-03T00:11:41;1.20;99.90
5429;DHT22;2737;52.386;9.980;2023-04-03T00:14:08;1.20;99.90
5429;DHT22;2737;52.386;9.980;2023-04-03T00:16:35;1.10;99.90
5429;DHT22;2737;52.386;9.980;2023-04-03T00:19:02;1.10;99.90
5429;DHT22;2737;52.386;9.980;2023-04-03T00:21:29;1.10;99.90
5429;DHT22;2737;52.386;9.980;2023-04-03T00:23:57;1.00;99.90
5429;DHT22;2737;52.386;9.980;2023-04-03T00:26:25;1.00;99.90
5429;DHT22;2737;52.386;9.980;2023-04-03T00:28:52;1.00;99.90
5429;DHT22;2737;52.386;9.980;2023-04-03T00:31:19;1.00;99.90
5429;DHT22;2737;52.386;9.980;2023-04-03T00:33:46;1.00;99.90
5429;DHT22;2737;52.386;9.980;2023-04-03T00:36:13;0.90;99.90
5429;DHT22;2737;52.386;9.980;2023-04-03T00:38:40;0.90;99.90
5429;DHT22;2737;52.386;9.980;2023-04-03T00:41:08;0.90;99.90
5429;DHT22;2737;52.386;9.980;2023-04-03T00:43:36;0.80;99.90
5429;DHT22;2737;52.386;9.980;2023-04-03T00:46:04;0.80;99.90
5429;DHT22;2737;52.386;9.980;2023-04-03T00:48:33;0.80;99.90
5429;DHT22;2737;52.386;9.980;2023-04-03T00:51:02;0.70;99.90
5429;DHT22;2737;52.386;9.980;2023-04-03T00:53:32;0.70;99.90
5429;DHT22;2737;52.386;9.980;2023-04-03T00:56:00;0.70;99.90
5429;DHT22;2737;52.386;9.980;2023-04-03T00:58:34;0.70;99.90
5429;DHT22;2737;52.386;9.980;2023-04-03T01:01:08;0.60;99.90
5429;DHT22;2737;52.386;9.980;2023-04-03T01:03:35;0.60;99.90
5429;DHT22;2737;52.386;9.980;2023-04-03T01:06:03;0.60;99.90
5429;DHT22;2737;52.386;9.980;2023-04-03T01:08:30;0.60;99.90
5429;DHT22;2737;52.386;9.980;2023-04-03T01:10:57;0.60;99.90
5429;DHT22;2737;52.386;9.980;2023-04-03T01:13:27;0.50;99.90
5429;DHT22;2737;52.386;9.980;2023-04-03T01:15:55;0.50;99.90
5429;DHT22;2737;52.386;9.980;2023-04-03T01:18:24;0.50;99.90
5429;DHT22;2737;52.386;9.980;2023-04-03T01:24:00;0.40;99.90
5429;DHT22;2737;52.386;9.980;2023-04-03T01:26:31;0.40;99.90
5429;DHT22;2737;52.386;9.980;2023-04-03T01:29:00;0.40;99.90
5429;DHT22;2737;52.386;9.980;2023-04-03T01:31:29;0.40;99.90
5429;DHT22;2737;52.386;9.980;2023-04-03T01:33:59;0.40;99.90
5429;DHT22;2737;52.386;9.980;2023-04-03T01:36:28;0.40;99.90
5429;DHT22;2737;52.386;9.980;2023-04-03T01:38:56;0.30;99.90
5429;DHT22;2737;52.386;9.980;2023-04-03T01:41:24;0.30;99.90
5429;DHT22;2737;52.386;9.980;2023-04-03T01:43:52;0.30;99.90
5429;DHT22;2737;52.386;9.980;2023-04-03T01:46:20;0.30;99.90
5429;DHT22;2737;52.386;9.980;2023-04-03T01:48:47;0.30;99.90
5429;DHT22;2737;52.386;9.980;2023-04-03T01:51:16;0.20;99.90
5429;DHT22;2737;52.386;9.980;2023-04-03T01:53:43;0.20;99.90
5429;DHT22;2737;52.386;9.980;2023-04-03T01:56:10;0.20;99.90
5429;DHT22;2737;52.386;9.980;2023-04-03T01:58:37;0.20;99.90
5429;DHT22;2737;52.386;9.980;2023-04-03T02:01:05;0.10;99.90
5429;DHT22;2737;52.386;9.980;2023-04-03T02:03:32;0.10;99.90
5429;DHT22;2737;52.386;9.980;2023-04-03T02:05:59;0.10;99.90
5429;DHT22;2737;52.386;9.980;2023-04-03T02:08:28;0.10;99.90
5429;DHT22;2737;52.386;9.980;2023-04-03T02:10:55;0.10;99.90
5429;DHT22;2737;52.386;9.980;2023-04-03T02:13:22;0.10;99.90
5429;DHT22;2737;52.386;9.980;2023-04-03T02:15:49;0.10;99.90
5429;DHT22;2737;52.386;9.980;2023-04-03T02:18:16;0.10;99.90
5429;DHT22;2737;52.386;9.980;2023-04-03T02:20:43;0.00;99.90
5429;DHT22;2737;52.386;9.980;2023-04-03T02:23:10;0.00;99.90
5429;DHT22;2737;52.386;9.980;2023-04-03T02:25:39;0.00;99.90
5429;DHT22;2737;52.386;9.980;2023-04-03T02:28:06;0.00;99.90
5429;DHT22;2737;52.386;9.980;2023-04-03T02:30:33;0.00;99.90
5429;DHT22;2737;52.386;9.980;2023-04-03T02:33:00;-0.10;99.90
5429;DHT22;2737;52.386;9.980;2023-04-03T02:35:27;-0.10;99.90
5429;DHT22;2737;52.386;9.980;2023-04-03T02:37:54;-0.10;99.90
5429;DHT22;2737;52.386;9.980;2023-04-03T02:40:21;-0.10;99.90
5429;DHT22;2737;52.386;9.980;2023-04-03T02:42:50;-0.10;99.90
5429;DHT22;2737;52.386;9.980;2023-04-03T02:45:17;-0.10;99.90
5429;DHT22;2737;52.386;9.980;2023-04-03T02:47:44;-0.10;99.90
5429;DHT22;2737;52.386;9.980;2023-04-03T02:50:11;-0.10;99.90
5429;DHT22;2737;52.386;9.980;2023-04-03T02:52:38;-0.20;99.90
5429;DHT22;2737;52.386;9.980;2023-04-03T02:55:06;-0.20;99.90
5429;DHT22;2737;52.386;9.980;2023-04-03T02:57:33;-0.30;99.90
5429;DHT22;2737;52.386;9.980;2023-04-03T03:00:02;-0.20;99.90
5429;DHT22;2737;52.386;9.980;2023-04-03T03:02:29;-0.30;99.90
5429;DHT22;2737;52.386;9.980;2023-04-03T03:04:56;-0.20;99.90
5429;DHT22;2737;52.386;9.980;2023-04-03T03:07:23;-0.20;99.90
5429;DHT22;2737;52.386;9.980;2023-04-03T03:09:51;-0.20;99.90
5429;DHT22;2737;52.386;9.980;2023-04-03T03:12:18;-0.20;99.90
5429;DHT22;2737;52.386;9.980;2023-04-03T03:14:47;-0.30;99.90
5429;DHT22;2737;52.386;9.980;2023-04-03T03:17:15;-0.20;99.90
5429;DHT22;2737;52.386;9.980;2023-04-03T03:19:43;-0.30;99.90
5429;DHT22;2737;52.386;9.980;2023-04-03T03:22:11;-0.30;99.90
5429;DHT22;2737;52.386;9.980;2023-04-03T03:24:38;-0.30;99.90
5429;DHT22;2737;52.386;9.980;2023-04-03T03:27:05;-0.40;99.90
5429;DHT22;2737;52.386;9.980;2023-04-03T03:29:32;-0.40;99.90
5429;DHT22;2737;52.386;9.980;2023-04-03T03:31:59;-0.40;99.90
5429;DHT22;2737;52.386;9.980;2023-04-03T03:34:27;-0.50;99.90
5429;DHT22;2737;52.386;9.980;2023-04-03T03:36:54;-0.50;99.90
5429;DHT22;2737;52.386;9.980;2023-04-03T03:39:21;-0.50;99.90
5429;DHT22;2737;52.386;9.980;2023-04-03T03:41:48;-0.50;99.90
5429;DHT22;2737;52.386;9.980;2023-04-03T03:44:16;-0.40;99.90
5429;DHT22;2737;52.386;9.980;2023-04-03T03:46:43;-0.40;99.90
5429;DHT22;2737;52.386;9.980;2023-04-03T03:49:10;-0.40;99.90
5429;DHT22;2737;52.386;9.980;2023-04-03T03:51:39;-0.30;99.90
5429;DHT22;2737;52.386;9.980;2023-04-03T03:54:07;-0.40;99.90
5429;DHT22;2737;52.386;9.980;2023-04-03T03:56:34;-0.40;99.90
5429;DHT22;2737;52.386;9.980;2023-04-03T03:59:01;-0.60;99.90
5429;DHT22;2737;52.386;9.980;2023-04-03T04:01:28;-0.60;99.90
5429;DHT22;2737;52.386;9.980;2023-04-03T04:03:55;-0.60;99.90
5429;DHT22;2737;52.386;9.980;2023-04-03T04:06:22;-0.70;99.90
5429;DHT22;2737;52.386;9.980;2023-04-03T04:08:51;-0.60;99.90
5429;DHT22;2737;52.386;9.980;2023-04-03T04:11:18;-0.60;99.90
5429;DHT22;2737;52.386;9.980;2023-04-03T04:13:45;-0.60;99.90
5429;DHT22;2737;52.386;9.980;2023-04-03T04:16:12;-0.60;99.90
5429;DHT22;2737;52.386;9.980;2023-04-03T04:18:39;-0.70;99.90
5429;DHT22;2737;52.386;9.980;2023-04-03T04:21:06;-0.60;99.90
5429;DHT22;2737;52.386;9.980;2023-04-03T04:23:33;-0.70;99.90
5429;DHT22;2737;52.386;9.980;2023-04-03T04:26:01;-0.80;99.90
5429;DHT22;2737;52.386;9.980;2023-04-03T04:28:28;-0.80;99.90
5429;DHT22;2737;52.386;9.980;2023-04-03T04:30:55;-0.80;99.90
5429;DHT22;2737;52.386;9.980;2023-04-03T04:33:22;-0.80;99.90
5429;DHT22;2737;52.386;9.980;2023-04-03T04:35:49;-0.80;99.90
5429;DHT22;2737;52.386;9.980;2023-04-03T04:38:17;-0.80;99.90
5429;DHT22;2737;52.386;9.980;2023-04-03T04:40:44;-0.80;99.90
5429;DHT22;2737;52.386;9.980;2023-04-03T04:43:12;-0.80;99.90
5429;DHT22;2737;52.386;9.980;2023-04-03T04:45:40;-0.70;99.90
5429;DHT22;2737;52.386;9.980;2023-04-03T04:48:07;-0.70;99.90
5429;DHT22;2737;52.386;9.980;2023-04-03T04:50:34;-0.70;99.90
5429;DHT22;2737;52.386;9.980;2023-04-03T04:53:01;-0.70;99.90
5429;DHT22;2737;52.386;9.980;2023-04-03T04:55:28;-0.70;99.90
5429;DHT22;2737;52.386;9.980;2023-04-03T04:57:55;-0.70;99.90
5429;DHT22;2737;52.386;9.980;2023-04-03T05:00:23;-0.70;99.90
5429;DHT22;2737;52.386;9.980;2023-04-03T05:02:51;-0.70;99.90
5429;DHT22;2737;52.386;9.980;2023-04-03T05:05:18;-0.70;99.90
5429;DHT22;2737;52.386;9.980;2023-04-03T05:07:45;-0.70;99.90
5429;DHT22;2737;52.386;9.980;2023-04-03T05:10:12;-0.60;99.90
5429;DHT22;2737;52.386;9.980;2023-04-03T05:12:39;-0.60;99.90
5429;DHT22;2737;52.386;9.980;2023-04-03T05:15:08;-0.60;99.90
5429;DHT22;2737;52.386;9.980;2023-04-03T05:17:36;-0.60;99.90
5429;DHT22;2737;52.386;9.980;2023-04-03T05:20:04;-0.60;99.90
5429;DHT22;2737;52.386;9.980;2023-04-03T05:22:32;-0.60;99.90
5429;DHT22;2737;52.386;9.980;2023-04-03T05:24:58;-0.60;99.90
5429;DHT22;2737;52.386;9.980;2023-04-03T05:27:26;-0.50;99.90
5429;DHT22;2737;52.386;9.980;2023-04-03T05:29:54;-0.50;99.90
5429;DHT22;2737;52.386;9.980;2023-04-03T05:32:21;-0.50;99.90
5429;DHT22;2737;52.386;9.980;2023-04-03T05:34:50;-0.40;99.90
5429;DHT22;2737;52.386;9.980;2023-04-03T05:37:17;-0.40;99.90
5429;DHT22;2737;52.386;9.980;2023-04-03T05:39:44;-0.30;99.90
5429;DHT22;2737;52.386;9.980;2023-04-03T05:42:12;-0.20;99.90
5429;DHT22;2737;52.386;9.980;2023-04-03T05:44:40;-0.20;99.90
5429;DHT22;2737;52.386;9.980;2023-04-03T05:47:07;-0.20;99.90
5429;DHT22;2737;52.386;9.980;2023-04-03T05:49:35;-0.10;99.90
5429;DHT22;2737;52.386;9.980;2023-04-03T05:52:17;-0.10;99.90
5429;DHT22;2737;52.386;9.980;2023-04-03T05:54:45;0.00;99.90
5429;DHT22;2737;52.386;9.980;2023-04-03T05:57:13;0.10;99.90
5429;DHT22;2737;52.386;9.980;2023-04-03T05:59:41;0.30;99.90
5429;DHT22;2737;52.386;9.980;2023-04-03T06:02:10;0.40;99.90
5429;DHT22;2737;52.386;9.980;2023-04-03T06:04:38;0.50;99.90
5429;DHT22;2737;52.386;9.980;2023-04-03T06:07:08;0.50;99.90
5429;DHT22;2737;52.386;9.980;2023-04-03T06:09:37;0.60;99.90
5429;DHT22;2737;52.386;9.980;2023-04-03T06:12:04;0.70;99.90
5429;DHT22;2737;52.386;9.980;2023-04-03T06:14:31;0.80;99.90
5429;DHT22;2737;52.386;9.980;2023-04-03T06:16:58;1.00;99.90
5429;DHT22;2737;52.386;9.980;2023-04-03T06:19:25;1.10;99.90
5429;DHT22;2737;52.386;9.980;2023-04-03T06:21:52;1.20;99.90
5429;DHT22;2737;52.386;9.980;2023-04-03T06:24:21;1.30;99.90
5429;DHT22;2737;52.386;9.980;2023-04-03T06:26:49;1.50;99.90
5429;DHT22;2737;52.386;9.980;2023-04-03T06:29:18;1.50;99.90
5429;DHT22;2737;52.386;9.980;2023-04-03T06:31:45;1.60;99.90
5429;DHT22;2737;52.386;9.980;2023-04-03T06:34:13;1.70;99.90
5429;DHT22;2737;52.386;9.980;2023-04-03T06:36:41;1.80;99.90
5429;DHT22;2737;52.386;9.980;2023-04-03T06:39:09;1.90;99.90
5429;DHT22;2737;52.386;9.980;2023-04-03T06:41:40;2.00;99.90
5429;DHT22;2737;52.386;9.980;2023-04-03T06:44:07;2.20;99.90
5429;DHT22;2737;52.386;9.980;2023-04-03T06:46:37;2.30;99.90
5429;DHT22;2737;52.386;9.980;2023-04-03T06:49:05;2.40;99.90
5429;DHT22;2737;52.386;9.980;2023-04-03T06:51:34;2.60;99.90
5429;DHT22;2737;52.386;9.980;2023-04-03T06:54:02;2.70;99.90
5429;DHT22;2737;52.386;9.980;2023-04-03T06:56:30;2.80;99.90
5429;DHT22;2737;52.386;9.980;2023-04-03T06:58:58;3.00;99.90
5429;DHT22;2737;52.386;9.980;2023-04-03T07:01:27;3.00;99.90
5429;DHT22;2737;52.386;9.980;2023-04-03T07:03:56;3.00;99.90
5429;DHT22;2737;52.386;9.980;2023-04-03T07:06:23;3.10;99.90
5429;DHT22;2737;52.386;9.980;2023-04-03T07:08:52;3.30;99.90
5429;DHT22;2737;52.386;9.980;2023-04-03T07:11:20;3.50;99.90
5429;DHT22;2737;52.386;9.980;2023-04-03T07:13:47;3.60;99.90
5429;DHT22;2737;52.386;9.980;2023-04-03T07:16:15;3.70;99.90
5429;DHT22;2737;52.386;9.980;2023-04-03T07:18:42;3.80;99.90
5429;DHT22;2737;52.386;9.980;2023-04-03T07:21:09;4.00;99.90
5429;DHT22;2737;52.386;9.980;2023-04-03T07:23:36;4.00;99.90
5429;DHT22;2737;52.386;9.980;2023-04-03T07:26:03;4.10;99.90
5429;DHT22;2737;52.386;9.980;2023-04-03T07:28:31;4.20;99.90
5429;DHT22;2737;52.386;9.980;2023-04-03T07:31:01;4.20;99.90
5429;DHT22;2737;52.386;9.980;2023-04-03T07:33:29;4.10;99.90
5429;DHT22;2737;52.386;9.980;2023-04-03T07:35:57;4.10;99.90
5429;DHT22;2737;52.386;9.980;2023-04-03T07:38:24;4.10;99.90
5429;DHT22;2737;52.386;9.980;2023-04-03T07:40:51;4.00;99.90
5429;DHT22;2737;52.386;9.980;2023-04-03T07:43:19;4.10;99.90
5429;DHT22;2737;52.386;9.980;2023-04-03T07:45:48;4.30;99.90
5429;DHT22;2737;52.386;9.980;2023-04-03T07:48:16;4.40;99.90
5429;DHT22;2737;52.386;9.980;2023-04-03T07:50:45;4.50;99.90
5429;DHT22;2737;52.386;9.980;2023-04-03T07:53:12;4.40;99.90
5429;DHT22;2737;52.386;9.980;2023-04-03T07:55:39;4.50;99.90
5429;DHT22;2737;52.386;9.980;2023-04-03T07:58:10;4.50;99.90
5429;DHT22;2737;52.386;9.980;2023-04-03T08:00:37;4.60;99.90
5429;DHT22;2737;52.386;9.980;2023-04-03T08:03:05;4.60;99.90
5429;DHT22;2737;52.386;9.980;2023-04-03T08:05:35;4.60;99.90
5429;DHT22;2737;52.386;9.980;2023-04-03T08:08:04;4.60;99.90
5429;DHT22;2737;52.386;9.980;2023-04-03T08:10:32;4.50;99.90
5429;DHT22;2737;52.386;9.980;2023-04-03T08:12:59;4.30;99.90
5429;DHT22;2737;52.386;9.980;2023-04-03T08:15:26;4.30;99.90
5429;DHT22;2737;52.386;9.980;2023-04-03T08:17:53;4.30;99.90
5429;DHT22;2737;52.386;9.980;2023-04-03T08:20:21;4.30;99.90
5429;DHT22;2737;52.386;9.980;2023-04-03T08:22:48;4.40;99.90
5429;DHT22;2737;52.386;9.980;2023-04-03T08:25:16;4.50;99.90
5429;DHT22;2737;52.386;9.980;2023-04-03T08:27:44;4.60;99.90
5429;DHT22;2737;52.386;9.980;2023-04-03T08:30:12;4.60;99.90
5429;DHT22;2737;52.386;9.980;2023-04-03T08:32:39;4.60;99.90
5429;DHT22;2737;52.386;9.980;2023-04-03T08:35:08;4.60;99.90
5429;DHT22;2737;52.386;9.980;2023-04-03T08:37:36;4.60;99.90
5429;DHT22;2737;52.386;9.980;2023-04-03T08:40:04;4.60;99.90
5429;DHT22;2737;52.386;9.980;2023-04-03T08:42:41;4.70;99.90
5429;DHT22;2737;52.386;9.980;2023-04-03T08:45:14;4.70;99.90
5429;DHT22;2737;52.386;9.980;2023-04-03T08:47:47;4.90;99.90
5429;DHT22;2737;52.386;9.980;2023-04-03T08:50:17;4.90;99.90
5429;DHT22;2737;52.386;9.980;2023-04-03T08:52:48;4.90;99.90
5429;DHT22;2737;52.386;9.980;2023-04-03T08:55:22;4.90;99.90
5429;DHT22;2737;52.386;9.980;2023-04-03T08:57:59;5.00;99.90
5429;DHT22;2737;52.386;9.980;2023-04-03T09:00:32;5.20;99.90
5429;DHT22;2737;52.386;9.980;2023-04-03T09:03:01;5.30;99.90
5429;DHT22;2737;52.386;9.980;2023-04-03T09:05:35;5.40;99.90
5429;DHT22;2737;52.386;9.980;2023-04-03T09:08:14;5.60;99.90
5429;DHT22;2737;52.386;9.980;2023-04-03T09:10:46;5.70;99.90
5429;DHT22;2737;52.386;9.980;2023-04-03T09:13:26;5.70;99.90
5429;DHT22;2737;52.386;9.980;2023-04-03T09:15:54;5.70;99.90
5429;DHT22;2737;52.386;9.980;2023-04-03T09:18:25;5.70;99.90
5429;DHT22;2737;52.386;9.980;2023-04-03T09:20:58;5.50;99.90
5429;DHT22;2737;52.386;9.980;2023-04-03T09:23:29;5.40;99.90
5429;DHT22;2737;52.386;9.980;2023-04-03T09:26:02;5.50;99.90
5429;DHT22;2737;52.386;9.980;2023-04-03T09:28:37;5.70;99.90
5429;DHT22;2737;52.386;9.980;2023-04-03T09:31:16;5.70;99.90
5429;DHT22;2737;52.386;9.980;2023-04-03T09:33:44;5.70;99.90
5429;DHT22;2737;52.386;9.980;2023-04-03T09:36:12;5.70;99.90
5429;DHT22;2737;52.386;9.980;2023-04-03T09:38:39;5.60;99.90
5429;DHT22;2737;52.386;9.980;2023-04-03T09:41:15;5.70;99.90
5429;DHT22;2737;52.386;9.980;2023-04-03T09:43:53;5.80;99.90
5429;DHT22;2737;52.386;9.980;2023-04-03T09:46:30;5.80;99.90
5429;DHT22;2737;52.386;9.980;2023-04-03T09:48:59;5.90;99.90
5429;DHT22;2737;52.386;9.980;2023-04-03T09:51:26;5.70;99.90
5429;DHT22;2737;52.386;9.980;2023-04-03T09:53:55;5.80;99.90
5429;DHT22;2737;52.386;9.980;2023-04-03T09:56:25;5.60;99.90
5429;DHT22;2737;52.386;9.980;2023-04-03T09:59:08;5.50;99.90
5429;DHT22;2737;52.386;9.980;2023-04-03T10:01:37;5.40;99.90
5429;DHT22;2737;52.386;9.980;2023-04-03T10:04:07;5.40;99.90
5429;DHT22;2737;52.386;9.980;2023-04-03T10:06:36;5.50;99.90
5429;DHT22;2737;52.386;9.980;2023-04-03T10:09:14;5.50;99.90
5429;DHT22;2737;52.386;9.980;2023-04-03T10:11:58;5.60;99.10
5429;DHT22;2737;52.386;9.980;2023-04-03T10:14:26;5.70;99.80
5429;DHT22;2737;52.386;9.980;2023-04-03T10:16:59;5.90;99.90
5429;DHT22;2737;52.386;9.980;2023-04-03T10:19:37;6.00;99.60
5429;DHT22;2737;52.386;9.980;2023-04-03T10:22:16;6.10;99.00
5429;DHT22;2737;52.386;9.980;2023-04-03T10:24:55;6.30;99.90
5429;DHT22;2737;52.386;9.980;2023-04-03T10:27:37;6.50;99.40
5429;DHT22;2737;52.386;9.980;2023-04-03T10:30:24;6.40;98.90
5429;DHT22;2737;52.386;9.980;2023-04-03T10:33:01;6.20;99.20
5429;DHT22;2737;52.386;9.980;2023-04-03T10:35:39;5.90;99.10
5429;DHT22;2737;52.386;9.980;2023-04-03T10:38:15;5.80;99.60
5429;DHT22;2737;52.386;9.980;2023-04-03T10:40:52;5.70;98.90
5429;DHT22;2737;52.386;9.980;2023-04-03T10:43:29;5.70;99.50
5429;DHT22;2737;52.386;9.980;2023-04-03T10:46:04;5.50;99.30
5429;DHT22;2737;52.386;9.980;2023-04-03T10:48:52;5.50;98.70
5429;DHT22;2737;52.386;9.980;2023-04-03T10:51:29;5.50;98.90
5429;DHT22;2737;52.386;9.980;2023-04-03T10:54:01;5.40;98.60
5429;DHT22;2737;52.386;9.980;2023-04-03T10:56:35;5.50;99.60
5429;DHT22;2737;52.386;9.980;2023-04-03T10:59:16;5.50;99.30
5429;DHT22;2737;52.386;9.980;2023-04-03T11:01:49;5.60;99.50
5429;DHT22;2737;52.386;9.980;2023-04-03T11:04:19;5.60;99.90
5429;DHT22;2737;52.386;9.980;2023-04-03T11:06:51;5.70;99.90
5429;DHT22;2737;52.386;9.980;2023-04-03T11:09:23;5.80;99.90
5429;DHT22;2737;52.386;9.980;2023-04-03T11:11:56;5.90;99.10
5429;DHT22;2737;52.386;9.980;2023-04-03T11:14:28;5.80;98.30
5429;DHT22;2737;52.386;9.980;2023-04-03T11:17:15;5.70;98.80
5429;DHT22;2737;52.386;9.980;2023-04-03T11:19:47;5.80;98.70
5429;DHT22;2737;52.386;9.980;2023-04-03T11:22:22;5.90;98.30
5429;DHT22;2737;52.386;9.980;2023-04-03T11:24:57;6.10;97.70
5429;DHT22;2737;52.386;9.980;2023-04-03T11:27:27;6.30;98.40
5429;DHT22;2737;52.386;9.980;2023-04-03T11:29:58;6.50;98.40
5429;DHT22;2737;52.386;9.980;2023-04-03T11:32:51;6.60;98.30
5429;DHT22;2737;52.386;9.980;2023-04-03T11:35:20;6.50;98.10
5429;DHT22;2737;52.386;9.980;2023-04-03T11:37:49;6.40;98.70
5429;DHT22;2737;52.386;9.980;2023-04-03T11:40:24;6.30;98.90
5429;DHT22;2737;52.386;9.980;2023-04-03T11:42:54;6.30;98.90
5429;DHT22;2737;52.386;9.980;2023-04-03T11:45:29;6.40;98.90
5429;DHT22;2737;52.386;9.980;2023-04-03T11:48:00;6.50;98.90
5429;DHT22;2737;52.386;9.980;2023-04-03T11:50:46;6.50;98.70
5429;DHT22;2737;52.386;9.980;2023-04-03T11:53:32;6.40;97.80
5429;DHT22;2737;52.386;9.980;2023-04-03T11:56:27;6.50;97.70
5429;DHT22;2737;52.386;9.980;2023-04-03T11:59:19;6.60;98.30
5429;DHT22;2737;52.386;9.980;2023-04-03T12:01:50;6.50;97.90
5429;DHT22;2737;52.386;9.980;2023-04-03T12:04:19;6.50;98.10
5429;DHT22;2737;52.386;9.980;2023-04-03T12:07:11;6.40;98.30
5429;DHT22;2737;52.386;9.980;2023-04-03T12:10:01;6.30;96.90
5429;DHT22;2737;52.386;9.980;2023-04-03T12:12:34;6.20;96.60
5429;DHT22;2737;52.386;9.980;2023-04-03T12:15:24;6.20;97.50
5429;DHT22;2737;52.386;9.980;2023-04-03T12:17:52;6.40;97.90
5429;DHT22;2737;52.386;9.980;2023-04-03T12:20:55;6.50;97.60
5429;DHT22;2737;52.386;9.980;2023-04-03T12:23:27;6.60;97.50
5429;DHT22;2737;52.386;9.980;2023-04-03T12:26:01;6.80;97.90
5429;DHT22;2737;52.386;9.980;2023-04-03T12:28:35;6.90;97.50
5429;DHT22;2737;52.386;9.980;2023-04-03T12:31:05;6.80;97.20
5429;DHT22;2737;52.386;9.980;2023-04-03T12:33:44;6.70;95.60
5429;DHT22;2737;52.386;9.980;2023-04-03T12:36:29;6.60;94.90
5429;DHT22;2737;52.386;9.980;2023-04-03T12:39:10;6.70;96.00
5429;DHT22;2737;52.386;9.980;2023-04-03T12:41:49;6.70;95.50
5429;DHT22;2737;52.386;9.980;2023-04-03T12:44:31;6.60;94.70
5429;DHT22;2737;52.386;9.980;2023-04-03T12:47:19;6.70;94.50
5429;DHT22;2737;52.386;9.980;2023-04-03T12:49:49;6.80;95.30
5429;DHT22;2737;52.386;9.980;2023-04-03T12:52:28;6.90;95.50
5429;DHT22;2737;52.386;9.980;2023-04-03T12:54:57;6.80;94.90
5429;DHT22;2737;52.386;9.980;2023-04-03T12:57:26;6.80;96.40
5429;DHT22;2737;52.386;9.980;2023-04-03T12:59:54;6.70;95.70
5429;DHT22;2737;52.386;9.980;2023-04-03T13:02:24;6.60;95.00
5429;DHT22;2737;52.386;9.980;2023-04-03T13:04:53;6.60;95.70
5429;DHT22;2737;52.386;9.980;2023-04-03T13:07:27;6.60;96.80
5429;DHT22;2737;52.386;9.980;2023-04-03T13:09:58;6.50;96.00
5429;DHT22;2737;52.386;9.980;2023-04-03T13:12:26;6.50;96.40
5429;DHT22;2737;52.386;9.980;2023-04-03T13:14:56;6.40;95.80
5429;DHT22;2737;52.386;9.980;2023-04-03T13:17:25;6.40;95.90
5429;DHT22;2737;52.386;9.980;2023-04-03T13:19:53;6.50;95.70
5429;DHT22;2737;52.386;9.980;2023-04-03T13:22:28;6.60;96.50
5429;DHT22;2737;52.386;9.980;2023-04-03T13:24:58;6.70;96.00
5429;DHT22;2737;52.386;9.980;2023-04-03T13:27:27;6.80;94.80
5429;DHT22;2737;52.386;9.980;2023-04-03T13:29:57;6.90;94.80
5429;DHT22;2737;52.386;9.980;2023-04-03T13:32:27;6.90;94.50
5429;DHT22;2737;52.386;9.980;2023-04-03T13:34:55;7.00;94.70
5429;DHT22;2737;52.386;9.980;2023-04-03T13:37:25;7.10;94.60
5429;DHT22;2737;52.386;9.980;2023-04-03T13:40:02;7.20;95.40
5429;DHT22;2737;52.386;9.980;2023-04-03T13:42:31;7.30;94.90
5429;DHT22;2737;52.386;9.980;2023-04-03T13:45:20;7.10;94.20
5429;DHT22;2737;52.386;9.980;2023-04-03T13:47:50;7.00;94.60
5429;DHT22;2737;52.386;9.980;2023-04-03T13:50:21;7.00;94.60
5429;DHT22;2737;52.386;9.980;2023-04-03T13:52:53;7.10;95.20
5429;DHT22;2737;52.386;9.980;2023-04-03T13:55:23;7.00;93.80
5429;DHT22;2737;52.386;9.980;2023-04-03T13:57:59;6.90;95.00
5429;DHT22;2737;52.386;9.980;2023-04-03T14:00:34;6.70;94.70
5429;DHT22;2737;52.386;9.980;2023-04-03T14:03:11;6.60;94.20
5429;DHT22;2737;52.386;9.980;2023-04-03T14:05:38;6.70;95.40
5429;DHT22;2737;52.386;9.980;2023-04-03T14:08:07;6.90;94.40
5429;DHT22;2737;52.386;9.980;2023-04-03T14:10:35;6.90;94.80
5429;DHT22;2737;52.386;9.980;2023-04-03T14:13:03;7.00;94.20
5429;DHT22;2737;52.386;9.980;2023-04-03T14:15:31;7.00;93.40
5429;DHT22;2737;52.386;9.980;2023-04-03T14:17:58;7.00;93.70
5429;DHT22;2737;52.386;9.980;2023-04-03T14:20:26;7.20;94.20
5429;DHT22;2737;52.386;9.980;2023-04-03T14:22:54;7.40;94.20
5429;DHT22;2737;52.386;9.980;2023-04-03T14:25:23;7.40;94.50
5429;DHT22;2737;52.386;9.980;2023-04-03T14:27:52;7.30;94.90
5429;DHT22;2737;52.386;9.980;2023-04-03T14:30:23;7.20;94.60
5429;DHT22;2737;52.386;9.980;2023-04-03T14:32:51;7.00;94.40
5429;DHT22;2737;52.386;9.980;2023-04-03T14:35:19;6.90;94.90
5429;DHT22;2737;52.386;9.980;2023-04-03T14:37:47;7.00;95.10
5429;DHT22;2737;52.386;9.980;2023-04-03T14:40:17;7.00;95.00
5429;DHT22;2737;52.386;9.980;2023-04-03T14:42:45;6.90;95.00
5429;DHT22;2737;52.386;9.980;2023-04-03T14:45:15;7.00;95.60
5429;DHT22;2737;52.386;9.980;2023-04-03T14:47:46;6.90;94.80
5429;DHT22;2737;52.386;9.980;2023-04-03T14:50:17;6.70;95.00
5429;DHT22;2737;52.386;9.980;2023-04-03T14:52:47;6.70;95.10
5429;DHT22;2737;52.386;9.980;2023-04-03T14:55:16;6.80;95.00
5429;DHT22;2737;52.386;9.980;2023-04-03T14:57:45;6.80;95.30
5429;DHT22;2737;52.386;9.980;2023-04-03T15:00:14;6.90;95.10
5429;DHT22;2737;52.386;9.980;2023-04-03T15:02:41;7.00;94.20
5429;DHT22;2737;52.386;9.980;2023-04-03T15:05:10;7.10;95.00
5429;DHT22;2737;52.386;9.980;2023-04-03T15:07:39;7.10;94.40
5429;DHT22;2737;52.386;9.980;2023-04-03T15:10:16;7.10;93.20
5429;DHT22;2737;52.386;9.980;2023-04-03T15:12:46;7.20;93.70
5429;DHT22;2737;52.386;9.980;2023-04-03T15:15:13;7.30;94.20
5429;DHT22;2737;52.386;9.980;2023-04-03T15:17:41;7.30;94.10
5429;DHT22;2737;52.386;9.980;2023-04-03T15:20:14;7.30;95.20
5429;DHT22;2737;52.386;9.980;2023-04-03T15:22:41;7.20;95.80
5429;DHT22;2737;52.386;9.980;2023-04-03T15:25:08;7.10;96.20
5429;DHT22;2737;52.386;9.980;2023-04-03T15:27:36;6.90;96.30
5429;DHT22;2737;52.386;9.980;2023-04-03T15:30:06;6.80;96.40
5429;DHT22;2737;52.386;9.980;2023-04-03T15:32:33;6.60;95.70
5429;DHT22;2737;52.386;9.980;2023-04-03T15:35:01;6.50;96.00
5429;DHT22;2737;52.386;9.980;2023-04-03T15:37:28;6.50;96.00
5429;DHT22;2737;52.386;9.980;2023-04-03T15:39:55;6.50;96.30
5429;DHT22;2737;52.386;9.980;2023-04-03T15:42:22;6.40;96.40
5429;DHT22;2737;52.386;9.980;2023-04-03T15:44:56;6.50;96.30
5429;DHT22;2737;52.386;9.980;2023-04-03T15:47:25;6.50;96.00
5429;DHT22;2737;52.386;9.980;2023-04-03T15:49:53;6.60;96.50
5429;DHT22;2737;52.386;9.980;2023-04-03T15:52:21;6.60;96.20
5429;DHT22;2737;52.386;9.980;2023-04-03T15:54:48;6.70;97.10
5429;DHT22;2737;52.386;9.980;2023-04-03T15:57:15;6.90;97.30
5429;DHT22;2737;52.386;9.980;2023-04-03T15:59:42;7.00;96.00
5429;DHT22;2737;52.386;9.980;2023-04-03T16:02:10;7.10;95.90
5429;DHT22;2737;52.386;9.980;2023-04-03T16:04:40;7.00;94.80
5429;DHT22;2737;52.386;9.980;2023-04-03T16:07:07;6.90;94.80
5429;DHT22;2737;52.386;9.980;2023-04-03T16:09:35;6.90;94.50
5429;DHT22;2737;52.386;9.980;2023-04-03T16:12:03;6.80;94.80
5429;DHT22;2737;52.386;9.980;2023-04-03T16:14:30;6.80;95.20
5429;DHT22;2737;52.386;9.980;2023-04-03T16:16:57;6.80;95.60
5429;DHT22;2737;52.386;9.980;2023-04-03T16:19:24;6.80;95.50
5429;DHT22;2737;52.386;9.980;2023-04-03T16:21:53;6.80;95.50
5429;DHT22;2737;52.386;9.980;2023-04-03T16:24:21;6.70;95.20
5429;DHT22;2737;52.386;9.980;2023-04-03T16:26:48;6.60;95.50
5429;DHT22;2737;52.386;9.980;2023-04-03T16:29:15;6.60;95.60
5429;DHT22;2737;52.386;9.980;2023-04-03T16:31:42;6.50;95.50
5429;DHT22;2737;52.386;9.980;2023-04-03T16:34:09;6.40;95.90
5429;DHT22;2737;52.386;9.980;2023-04-03T16:36:36;6.30;96.50